Time;durP1;ratioP1;P1;durP2;ratioP2;P2;SDS_P1;SDS_P2;PMS_P1;PMS_P2;Temp;Humidity;BMP_temperature;BMP_pressure;BME280_temperature;BME280_humidity;BME280_pressure;Samples;Min_cycle;Max_cycle;Signal;HPM_P1;HPM_P2
2023/10/10 00:00:05;;;;;;;24.45;17.15;;;;;;;;;;2072969;28;20030;-73
2023/10/10 00:01:27;;;;;;;29.80;18.45;;;;;;;;;;2071989;28;20029;-72
2023/10/10 00:02:49;;;;;;;38.97;21.35;;;;;;;;;;2073655;28;20026;-72
2023/10/10 00:04:19;;;;;;;;;;;;;;;;;;2067570;28;20030;-72
2023/10/10 00:05:40;;;;;;;33.20;19.45;;;;;;;;;;2079472;28;19970;-72
2023/10/10 00:07:04;;;;;;;35.00;20.58;;;;;;;;;;2070780;28;20034;-72
2023/10/10 00:08:34;;;;;;;33.28;19.85;;;;;;;;;;2074207;28;20480;-72
2023/10/10 00:09:56;;;;;;;34.22;20.85;;;;;;;;;;2080413;28;20579;-72
2023/10/10 00:11:18;;;;;;;33.33;19.48;;;;;;;;;;2080342;28;20041;-72
2023/10/10 00:12:39;;;;;;;36.90;19.98;;;;;;;;;;2076697;28;20104;-72
2023/10/10 00:14:06;;;;;;;36.83;19.67;;;;;;;;;;2073160;28;20034;-72
2023/10/10 00:15:33;;;;;;;31.35;18.60;;;;;;;;;;2087548;28;20021;-72
2023/10/10 00:16:55;;;;;;;31.58;19.25;;;;;;;;;;2076055;28;20096;-72
2023/10/10 00:18:20;;;;;;;32.38;20.15;;;;;;;;;;2074327;28;20057;-72
2023/10/10 00:19:44;;;;;;;31.40;18.83;;;;;;;;;;2066091;28;20379;-72
2023/10/10 00:21:09;;;;;;;29.15;18.50;;;;;;;;;;2071902;28;20037;-73
2023/10/10 00:22:34;;;;;;;35.78;18.75;;;;;;;;;;2076142;28;20045;-72
2023/10/10 00:23:55;;;;;;;31.70;17.85;;;;;;;;;;2072697;28;20574;-72
2023/10/10 00:25:18;;;;;;;31.40;18.60;;;;;;;;;;2088684;28;20029;-72
2023/10/10 00:26:45;;;;;;;27.65;17.77;;;;;;;;;;2077266;28;20030;-72
2023/10/10 00:28:08;;;;;;;34.33;19.75;;;;;;;;;;2072661;28;20112;-73
2023/10/10 00:29:29;;;;;;;29.92;18.98;;;;;;;;;;2066151;28;20022;-72
2023/10/10 00:30:50;;;;;;;30.77;20.23;;;;;;;;;;2086409;28;20025;-72
2023/10/10 00:32:22;;;;;;;29.58;18.98;;;;;;;;;;2077872;28;20026;-73
2023/10/10 00:33:50;;;;;;;30.23;19.42;;;;;;;;;;2073832;28;20025;-72
2023/10/10 00:35:10;;;;;;;30.08;18.80;;;;;;;;;;2079293;28;20030;-72
2023/10/10 00:36:33;;;;;;;31.02;17.90;;;;;;;;;;2073062;28;20034;-72
2023/10/10 00:37:56;;;;;;;31.08;18.75;;;;;;;;;;2089942;28;20090;-72
2023/10/10 00:40:39;;;;;;;38.33;19.83;;;;;;;;;;2072642;28;20033;-72
2023/10/10 00:42:19;;;;;;;39.45;21.45;;;;;;;;;;2087762;28;20029;-72
2023/10/10 00:43:40;;;;;;;37.05;21.27;;;;;;;;;;2073506;28;20088;-73
2023/10/10 00:45:09;;;;;;;33.63;19.90;;;;;;;;;;2073192;28;20034;-72
2023/10/10 00:46:30;;;;;;;33.15;18.73;;;;;;;;;;2087737;28;20068;-72
2023/10/10 00:47:53;;;;;;;33.42;19.88;;;;;;;;;;2080056;28;20037;-72
2023/10/10 00:49:14;;;;;;;32.30;17.90;;;;;;;;;;2071612;28;20519;-72
2023/10/10 00:50:37;;;;;;;29.95;18.00;;;;;;;;;;2072427;28;20505;-72
2023/10/10 00:52:06;;;;;;;33.20;19.38;;;;;;;;;;2072871;28;20453;-71
2023/10/10 00:53:27;;;;;;;30.60;18.27;;;;;;;;;;2080350;28;20477;-72
2023/10/10 00:54:49;;;;;;;33.95;18.05;;;;;;;;;;2075576;28;20076;-72
2023/10/10 00:56:13;;;;;;;27.70;17.50;;;;;;;;;;2067558;28;20018;-73
2023/10/10 00:57:36;;;;;;;34.92;17.95;;;;;;;;;;2082992;28;20084;-73
2023/10/10 00:58:57;;;;;;;34.17;18.50;;;;;;;;;;2068960;28;20033;-72
2023/10/10 01:00:19;;;;;;;37.25;20.08;;;;;;;;;;2063200;28;20121;-72
2023/10/10 01:01:40;;;;;;;;;;;;;;;;;;2072831;28;20466;-72
2023/10/10 01:03:20;;;;;;;33.75;19.95;;;;;;;;;;2066807;28;19914;-72
2023/10/10 01:06:32;;;;;;;38.75;18.98;;;;;;;;;;2064614;28;20089;-72
2023/10/10 01:07:56;;;;;;;34.08;18.65;;;;;;;;;;2072411;28;20037;-73
2023/10/10 01:09:32;;;;;;;34.50;17.98;;;;;;;;;;2070702;28;20057;-72
2023/10/10 01:10:56;;;;;;;35.08;18.17;;;;;;;;;;2087662;28;20135;-72
2023/10/10 01:12:17;;;;;;;33.45;18.65;;;;;;;;;;2074828;28;20100;-72
2023/10/10 01:13:40;;;;;;;32.45;18.50;;;;;;;;;;2077339;28;20029;-72
2023/10/10 01:15:07;;;;;;;28.38;18.73;;;;;;;;;;2071657;28;20515;-72
2023/10/10 01:16:28;;;;;;;26.85;18.33;;;;;;;;;;2072290;28;20385;-72
2023/10/10 01:17:49;;;;;;;26.58;18.65;;;;;;;;;;2071356;28;20038;-72
2023/10/10 01:19:14;;;;;;;31.77;18.67;;;;;;;;;;2072805;28;20030;-72
2023/10/10 01:20:35;;;;;;;41.75;20.35;;;;;;;;;;2081692;28;20022;-72
2023/10/10 01:21:57;;;;;;;33.63;19.25;;;;;;;;;;2076639;28;20084;-72
2023/10/10 01:23:26;;;;;;;40.20;19.88;;;;;;;;;;2081434;28;20025;-72
2023/10/10 01:24:51;;;;;;;41.45;20.77;;;;;;;;;;2074485;28;20519;-72
2023/10/10 01:26:12;;;;;;;38.20;21.50;;;;;;;;;;2064751;28;20045;-72
2023/10/10 01:27:35;;;;;;;44.72;20.27;;;;;;;;;;2075982;28;20113;-71
2023/10/10 01:28:59;;;;;;;33.13;19.80;;;;;;;;;;2074147;28;20034;-72
2023/10/10 01:30:43;;;;;;;33.28;20.38;;;;;;;;;;2078140;28;20036;-72
2023/10/10 01:32:04;;;;;;;33.28;20.63;;;;;;;;;;2071826;28;20386;-72
2023/10/10 01:34:55;;;;;;;28.63;19.60;;;;;;;;;;2072353;28;20041;-71
2023/10/10 01:36:19;;;;;;;38.15;21.08;;;;;;;;;;2074324;28;20110;-72
2023/10/10 01:37:41;;;;;;;34.65;21.92;;;;;;;;;;2057079;28;20046;-72
2023/10/10 01:39:08;;;;;;;35.50;21.25;;;;;;;;;;2057676;28;20038;-72
2023/10/10 01:40:32;;;;;;;31.85;20.02;;;;;;;;;;2056051;28;20453;-72
2023/10/10 01:41:58;;;;;;;35.00;19.58;;;;;;;;;;2070981;28;20022;-72
2023/10/10 01:43:19;;;;;;;37.15;20.25;;;;;;;;;;2061514;28;20023;-73
2023/10/10 01:44:40;;;;;;;35.65;19.35;;;;;;;;;;2056830;28;20030;-72
2023/10/10 01:46:18;;;;;;;36.88;20.30;;;;;;;;;;2058375;28;20043;-72
2023/10/10 01:47:56;;;;;;;30.73;21.20;;;;;;;;;;2055155;28;20043;-72
2023/10/10 01:49:20;;;;;;;33.67;19.90;;;;;;;;;;2055810;28;20123;-72
2023/10/10 01:50:41;;;;;;;33.38;21.50;;;;;;;;;;2053686;28;20042;-73
2023/10/10 01:52:02;;;;;;;36.35;19.85;;;;;;;;;;2054884;28;20030;-72
2023/10/10 01:53:23;;;;;;;27.88;18.75;;;;;;;;;;2068979;28;20078;-73
2023/10/10 01:54:46;;;;;;;27.50;17.70;;;;;;;;;;2071201;28;20026;-72
2023/10/10 01:56:07;;;;;;;31.70;18.88;;;;;;;;;;2050843;28;20035;-72
2023/10/10 01:57:28;;;;;;;34.17;19.52;;;;;;;;;;2060548;28;20104;-72
2023/10/10 01:58:53;;;;;;;29.98;18.73;;;;;;;;;;2058622;28;20406;-72
2023/10/10 02:00:26;;;;;;;35.05;19.90;;;;;;;;;;2049561;28;20035;-72
2023/10/10 02:01:48;;;;;;;37.90;19.90;;;;;;;;;;2062652;28;20520;-72
2023/10/10 02:03:09;;;;;;;40.78;21.60;;;;;;;;;;2063404;28;20061;-73
2023/10/10 02:04:34;;;;;;;44.60;22.87;;;;;;;;;;2058158;28;20435;-72
2023/10/10 02:05:55;;;;;;;44.88;24.10;;;;;;;;;;2055931;28;20046;-72
2023/10/10 02:07:23;;;;;;;53.67;26.00;;;;;;;;;;2056810;28;20042;-72
2023/10/10 02:08:44;;;;;;;41.08;24.90;;;;;;;;;;2055892;28;20035;-72
2023/10/10 02:10:26;;;;;;;43.65;23.55;;;;;;;;;;2056392;28;20053;-72
2023/10/10 02:11:50;;;;;;;39.28;22.60;;;;;;;;;;2056324;28;20085;-73
2023/10/10 02:13:11;;;;;;;38.70;23.45;;;;;;;;;;2056259;28;20027;-73
2023/10/10 02:14:32;;;;;;;36.78;22.73;;;;;;;;;;2053757;28;20604;-72
2023/10/10 02:15:53;;;;;;;36.22;22.10;;;;;;;;;;2056260;28;20078;-72
2023/10/10 02:17:27;;;;;;;43.20;22.02;;;;;;;;;;2057001;28;20035;-72
2023/10/10 02:18:54;;;;;;;44.90;22.33;;;;;;;;;;2060160;28;20109;-72
2023/10/10 02:20:32;;;;;;;45.17;23.38;;;;;;;;;;2061444;28;20429;-72
2023/10/10 02:22:03;;;;;;;46.13;22.20;;;;;;;;;;2047113;28;20039;-73
2023/10/10 02:23:31;;;;;;;43.63;22.25;;;;;;;;;;2053677;28;20085;-72
2023/10/10 02:25:37;;;;;;;33.10;21.45;;;;;;;;;;2072453;28;20098;-73
2023/10/10 02:26:35;;;;;;;41.15;22.23;;;;;;;;;;2056545;28;20046;-72
2023/10/10 02:29:47;;;;;;;46.13;23.15;;;;;;;;;;2073746;28;20041;-72
2023/10/10 02:31:09;;;;;;;42.80;23.95;;;;;;;;;;2071720;28;20525;-72
2023/10/10 02:32:33;;;;;;;67.03;24.67;;;;;;;;;;2065408;28;20039;-72
2023/10/10 02:34:03;;;;;;;46.65;24.67;;;;;;;;;;2060869;28;20030;-72
2023/10/10 02:35:27;;;;;;;39.15;23.00;;;;;;;;;;2065032;28;20030;-73
2023/10/10 02:37:05;;;;;;;35.20;22.60;;;;;;;;;;2082029;28;20520;-73
2023/10/10 02:38:31;;;;;;;37.67;24.98;;;;;;;;;;2086187;28;20044;-74
2023/10/10 02:41:38;;;;;;;34.85;21.92;;;;;;;;;;2082384;28;20037;-74
2023/10/10 02:44:46;;;;;;;40.92;23.90;;;;;;;;;;2080015;28;20021;-74
2023/10/10 02:46:06;;;;;;;48.60;24.35;;;;;;;;;;2074464;28;20097;-74
2023/10/10 02:47:30;;;;;;;60.88;25.65;;;;;;;;;;2076469;28;20056;-74
2023/10/10 02:48:55;;;;;;;48.78;25.92;;;;;;;;;;2080200;28;20045;-74
2023/10/10 02:50:39;;;;;;;53.80;26.17;;;;;;;;;;2077363;28;20037;-74
2023/10/10 02:51:58;;;;;;;55.38;26.63;;;;;;;;;;2067358;28;20039;-74
2023/10/10 02:53:22;;;;;;;51.05;26.13;;;;;;;;;;2074201;28;20041;-74
2023/10/10 02:54:53;;;;;;;43.72;24.85;;;;;;;;;;2073509;28;20133;-74
2023/10/10 02:56:17;;;;;;;44.55;24.73;;;;;;;;;;2069418;28;20121;-73
2023/10/10 02:57:39;;;;;;;46.78;26.40;;;;;;;;;;2072767;28;20034;-75
2023/10/10 02:59:05;;;;;;;41.17;24.13;;;;;;;;;;2081019;28;20037;-74
2023/10/10 03:01:55;;;;;;;46.17;26.50;;;;;;;;;;2063536;28;20042;-74
2023/10/10 03:03:19;;;;;;;49.13;25.40;;;;;;;;;;2074522;28;20362;-74
2023/10/10 03:04:53;;;;;;;49.38;26.15;;;;;;;;;;2072701;28;20052;-75
2023/10/10 03:06:14;;;;;;;53.13;25.85;;;;;;;;;;2073582;28;20029;-74
2023/10/10 03:07:35;;;;;;;65.93;26.27;;;;;;;;;;2073141;28;20042;-73
2023/10/10 03:09:38;;;;;;;51.75;26.40;;;;;;;;;;2075682;28;20034;-74
2023/10/10 03:10:55;;;;;;;52.13;25.30;;;;;;;;;;2073553;28;20037;-74
2023/10/10 03:12:17;;;;;;;64.22;25.17;;;;;;;;;;2080660;28;20037;-74
2023/10/10 03:13:45;;;;;;;47.88;25.90;;;;;;;;;;2064886;28;20065;-74
2023/10/10 03:15:15;;;;;;;60.45;25.30;;;;;;;;;;2072968;28;20041;-74
2023/10/10 03:16:44;;;;;;;44.90;25.55;;;;;;;;;;2065656;28;20034;-74
2023/10/10 03:19:37;;;;;;;46.47;25.33;;;;;;;;;;2074083;28;20041;-75
2023/10/10 03:22:52;;;;;;;39.45;23.58;;;;;;;;;;2073801;28;20037;-74
2023/10/10 03:24:29;;;;;;;37.08;22.25;;;;;;;;;;2073673;28;20026;-74
2023/10/10 03:26:00;;;;;;;33.22;21.60;;;;;;;;;;2073323;28;20027;-75
2023/10/10 03:29:04;;;;;;;35.50;21.70;;;;;;;;;;2073543;28;20051;-74
2023/10/10 03:30:35;;;;;;;33.00;20.88;;;;;;;;;;2066034;28;20034;-75
2023/10/10 03:32:18;;;;;;;35.35;21.80;;;;;;;;;;2072079;28;20522;-75
2023/10/10 03:33:37;;;;;;;29.90;19.65;;;;;;;;;;2073285;28;20546;-74
2023/10/10 03:35:13;;;;;;;30.40;20.80;;;;;;;;;;2069104;28;20022;-75
2023/10/10 03:36:43;;;;;;;32.17;20.17;;;;;;;;;;2073298;28;20045;-74
2023/10/10 03:38:26;;;;;;;32.85;20.40;;;;;;;;;;2080411;28;20046;-75
2023/10/10 03:39:55;;;;;;;29.33;20.02;;;;;;;;;;2081084;28;20033;-74
2023/10/10 05:24:42;;;;;;;74.75;34.45;;;;;;;;;;2084860;28;20033;-73
2023/10/10 05:26:06;;;;;;;73.00;35.40;;;;;;;;;;2089844;28;20033;-73
2023/10/10 05:27:32;;;;;;;77.47;34.55;;;;;;;;;;2080717;28;20476;-73
2023/10/10 05:28:56;;;;;;;76.65;33.63;;;;;;;;;;2068777;28;20037;-73
2023/10/10 05:30:23;;;;;;;68.03;32.58;;;;;;;;;;2083790;28;20071;-73
2023/10/10 05:31:51;;;;;;;69.95;33.60;;;;;;;;;;2078733;28;21411;-73
2023/10/10 05:33:12;;;;;;;72.57;34.25;;;;;;;;;;2079628;28;20440;-73
2023/10/10 05:34:34;;;;;;;70.10;33.05;;;;;;;;;;2080357;28;20021;-73
2023/10/10 05:35:57;;;;;;;75.13;32.78;;;;;;;;;;2087457;28;20043;-74
2023/10/10 05:37:18;;;;;;;71.10;34.63;;;;;;;;;;2085607;28;20041;-73
2023/10/10 05:38:39;;;;;;;68.47;33.83;;;;;;;;;;2078561;28;20488;-73
2023/10/10 05:40:01;;;;;;;67.25;33.00;;;;;;;;;;2079786;28;20029;-73
2023/10/10 05:41:22;;;;;;;72.47;34.08;;;;;;;;;;2081658;28;20029;-73
2023/10/10 05:42:43;;;;;;;68.30;35.15;;;;;;;;;;2080504;28;20449;-74
2023/10/10 05:44:04;;;;;;;65.75;31.40;;;;;;;;;;2079363;28;20042;-73
2023/10/10 05:45:25;;;;;;;75.50;34.72;;;;;;;;;;2074672;28;21118;-74
2023/10/10 05:46:47;;;;;;;60.13;32.03;;;;;;;;;;2086863;28;20674;-73
2023/10/10 05:48:08;;;;;;;68.82;33.22;;;;;;;;;;2079211;28;20041;-73
2023/10/10 05:49:29;;;;;;;72.32;33.28;;;;;;;;;;2081329;28;20048;-73
2023/10/10 05:50:50;;;;;;;71.55;34.67;;;;;;;;;;2089193;28;20028;-74
2023/10/10 05:52:12;;;;;;;62.17;31.55;;;;;;;;;;2080255;28;20034;-73
2023/10/10 05:53:33;;;;;;;72.55;33.25;;;;;;;;;;2080316;28;21294;-73
2023/10/10 05:54:54;;;;;;;80.22;36.50;;;;;;;;;;2080311;28;20400;-73
2023/10/10 05:56:16;;;;;;;69.57;32.33;;;;;;;;;;2081393;28;20037;-73
2023/10/10 05:57:37;;;;;;;61.58;31.65;;;;;;;;;;2081862;28;20412;-73
2023/10/10 05:58:58;;;;;;;60.20;30.10;;;;;;;;;;2079632;28;20032;-73
2023/10/10 06:00:19;;;;;;;58.15;29.88;;;;;;;;;;2082617;28;20418;-73
2023/10/10 06:01:40;;;;;;;57.85;30.88;;;;;;;;;;2078838;28;20084;-73
2023/10/10 06:03:01;;;;;;;62.33;30.65;;;;;;;;;;2085425;28;20028;-73
2023/10/10 06:04:22;;;;;;;67.03;33.67;;;;;;;;;;2082684;28;20033;-74
2023/10/10 06:05:49;;;;;;;59.70;30.60;;;;;;;;;;2080193;28;20083;-74
2023/10/10 06:07:10;;;;;;;63.05;30.42;;;;;;;;;;2085019;28;20033;-73
2023/10/10 06:08:31;;;;;;;63.00;31.30;;;;;;;;;;2076964;28;20029;-73
2023/10/10 06:09:52;;;;;;;58.22;30.65;;;;;;;;;;2078649;28;20063;-74
2023/10/10 06:11:16;;;;;;;56.20;30.33;;;;;;;;;;2081455;28;20480;-74
2023/10/10 06:12:40;;;;;;;60.97;30.45;;;;;;;;;;2083695;28;20033;-74
2023/10/10 06:14:01;;;;;;;54.13;28.67;;;;;;;;;;2081241;28;20025;-73
2023/10/10 06:15:22;;;;;;;64.60;31.90;;;;;;;;;;2077580;28;20426;-73
2023/10/10 06:16:44;;;;;;;62.58;30.42;;;;;;;;;;2085635;28;20036;-73
2023/10/10 06:18:08;;;;;;;65.68;31.48;;;;;;;;;;2075010;28;20087;-73
2023/10/10 06:19:29;;;;;;;60.67;28.45;;;;;;;;;;2070172;28;20036;-72
2023/10/10 06:20:50;;;;;;;62.60;30.88;;;;;;;;;;2071387;28;20064;-73
2023/10/10 06:22:14;;;;;;;57.85;28.00;;;;;;;;;;2071286;28;20393;-74
2023/10/10 06:23:35;;;;;;;54.72;29.80;;;;;;;;;;2074845;28;20030;-74
2023/10/10 06:24:58;;;;;;;59.72;30.35;;;;;;;;;;2082023;28;20028;-73
2023/10/10 06:26:21;;;;;;;;;;;;;;;;;;2076105;28;20034;-73
2023/10/10 06:27:46;;;;;;;61.55;28.98;;;;;;;;;;2076595;28;19917;-73
2023/10/10 06:29:08;;;;;;;57.20;29.00;;;;;;;;;;2080707;28;20037;-72
2023/10/10 06:30:29;;;;;;;60.75;28.80;;;;;;;;;;2083446;28;20080;-72
2023/10/10 06:31:52;;;;;;;61.85;27.85;;;;;;;;;;2083230;28;20029;-74
2023/10/10 06:33:15;;;;;;;58.55;28.05;;;;;;;;;;2083288;28;20029;-72
2023/10/10 06:34:36;;;;;;;53.20;27.25;;;;;;;;;;2081770;28;20017;-72
2023/10/10 06:36:01;;;;;;;52.63;26.80;;;;;;;;;;2083002;28;20032;-74
2023/10/10 06:37:26;;;;;;;56.20;29.25;;;;;;;;;;2074268;28;20030;-75
2023/10/10 06:38:59;;;;;;;52.50;28.40;;;;;;;;;;2085695;28;20037;-71
2023/10/10 06:40:26;;;;;;;;;;;;;;;;;;2082782;28;20037;-71
2023/10/10 06:41:50;;;;;;;50.50;27.80;;;;;;;;;;2081050;28;20291;-72
2023/10/10 06:43:11;;;;;;;50.85;26.13;;;;;;;;;;2081353;28;20034;-73
2023/10/10 06:44:32;;;;;;;48.60;26.85;;;;;;;;;;2079129;28;20393;-74
2023/10/10 06:45:54;;;;;;;46.78;24.63;;;;;;;;;;2082304;28;20028;-73
2023/10/10 06:47:17;;;;;;;46.25;26.25;;;;;;;;;;2080729;28;20025;-74
2023/10/10 06:48:40;;;;;;;49.97;26.42;;;;;;;;;;2090260;28;20039;-72
2023/10/10 06:50:10;;;;;;;44.15;26.38;;;;;;;;;;2088274;28;20049;-73
2023/10/10 06:51:33;;;;;;;60.90;28.25;;;;;;;;;;2081564;28;20049;-72
2023/10/10 06:52:55;;;;;;;50.60;26.05;;;;;;;;;;2088140;28;20029;-74
2023/10/10 06:54:28;;;;;;;52.40;26.67;;;;;;;;;;2075342;28;20030;-72
2023/10/10 06:55:49;;;;;;;48.38;26.30;;;;;;;;;;2078469;28;20030;-72
2023/10/10 06:57:16;;;;;;;54.40;26.02;;;;;;;;;;2075181;28;20034;-70
2023/10/10 06:58:39;;;;;;;44.17;25.83;;;;;;;;;;2080129;28;20033;-70
2023/10/10 07:00:00;;;;;;;51.15;25.60;;;;;;;;;;2091548;28;20503;-71
2023/10/10 07:01:21;;;;;;;45.67;25.40;;;;;;;;;;2077249;28;20022;-70
2023/10/10 07:02:47;;;;;;;45.63;24.83;;;;;;;;;;2064052;28;20023;-73
2023/10/10 07:04:11;;;;;;;43.85;25.52;;;;;;;;;;2078032;28;20033;-73
2023/10/10 07:05:35;;;;;;;40.30;24.65;;;;;;;;;;2081314;28;20029;-73
2023/10/10 07:07:00;;;;;;;51.72;24.48;;;;;;;;;;2079740;28;20504;-73
2023/10/10 07:08:24;;;;;;;46.17;23.42;;;;;;;;;;2087554;28;20037;-73
2023/10/10 07:09:46;;;;;;;45.55;24.70;;;;;;;;;;2078370;28;20030;-73
2023/10/10 07:11:09;;;;;;;46.55;24.10;;;;;;;;;;2077456;28;20028;-74
2023/10/10 07:12:31;;;;;;;44.13;24.13;;;;;;;;;;2083999;28;20037;-73
2023/10/10 07:13:58;;;;;;;48.85;27.65;;;;;;;;;;2083156;28;20029;-74
2023/10/10 07:15:21;;;;;;;39.90;23.60;;;;;;;;;;2078350;28;20392;-74
2023/10/10 07:16:45;;;;;;;40.95;22.38;;;;;;;;;;2079624;28;20064;-75
2023/10/10 07:18:13;;;;;;;42.40;23.67;;;;;;;;;;2078845;28;20409;-75
2023/10/10 07:19:34;;;;;;;43.47;23.67;;;;;;;;;;2074245;28;20056;-75
2023/10/10 07:21:08;;;;;;;44.40;23.50;;;;;;;;;;2085389;28;20029;-74
2023/10/10 07:22:36;;;;;;;43.75;23.45;;;;;;;;;;2081916;28;20034;-75
2023/10/10 07:24:13;;;;;;;39.10;22.70;;;;;;;;;;2087762;28;20032;-75
2023/10/10 07:25:43;;;;;;;37.00;21.90;;;;;;;;;;2081620;28;20437;-75
2023/10/10 07:27:11;;;;;;;37.95;22.85;;;;;;;;;;2072613;28;20484;-75
2023/10/10 07:28:47;;;;;;;39.67;22.40;;;;;;;;;;2073554;28;20042;-75
2023/10/10 07:30:18;;;;;;;41.45;22.95;;;;;;;;;;2073329;28;20420;-75
2023/10/10 07:31:40;;;;;;;34.17;21.33;;;;;;;;;;2073072;28;20425;-75
2023/10/10 07:33:03;;;;;;;42.80;23.10;;;;;;;;;;2078586;28;20033;-73
2023/10/10 07:34:34;;;;;;;40.53;22.63;;;;;;;;;;2067722;28;20075;-73
2023/10/10 07:35:56;;;;;;;38.72;22.73;;;;;;;;;;2064508;28;20034;-73
2023/10/10 07:37:22;;;;;;;39.05;21.85;;;;;;;;;;2073039;28;20034;-73
2023/10/10 07:38:43;;;;;;;36.95;22.13;;;;;;;;;;2078499;28;20026;-73
2023/10/10 07:41:37;;;;;;;36.80;20.02;;;;;;;;;;2079756;28;20039;-73
2023/10/10 07:43:02;;;;;;;39.33;20.20;;;;;;;;;;2081447;28;20125;-73
2023/10/10 07:44:24;;;;;;;35.85;20.58;;;;;;;;;;2082928;28;20041;-73
2023/10/10 07:45:45;;;;;;;32.90;19.08;;;;;;;;;;2082502;28;20044;-73
2023/10/10 07:47:27;;;;;;;37.78;21.45;;;;;;;;;;2081272;28;20034;-73
2023/10/10 07:48:53;;;;;;;38.72;21.60;;;;;;;;;;2079954;28;20038;-73
2023/10/10 07:50:18;;;;;;;33.03;19.20;;;;;;;;;;2083589;28;20037;-74
2023/10/10 07:51:49;;;;;;;38.20;20.20;;;;;;;;;;2080510;28;20034;-74
2023/10/10 07:53:12;;;;;;;32.72;18.23;;;;;;;;;;2081069;28;20571;-74
2023/10/10 07:54:40;;;;;;;35.83;20.23;;;;;;;;;;2080970;28;20033;-74
2023/10/10 07:56:01;;;;;;;38.85;21.92;;;;;;;;;;2080550;28;20574;-74
2023/10/10 07:57:22;;;;;;;34.88;20.15;;;;;;;;;;2074649;28;20034;-75
2023/10/10 07:58:43;;;;;;;36.85;20.00;;;;;;;;;;2064399;28;20034;-74
2023/10/10 08:00:16;;;;;;;35.08;20.55;;;;;;;;;;2070805;28;20064;-74
2023/10/10 08:01:38;;;;;;;32.45;18.67;;;;;;;;;;2072082;28;20045;-75
2023/10/10 08:02:59;;;;;;;32.67;19.77;;;;;;;;;;2072893;28;20040;-74
2023/10/10 08:04:21;;;;;;;31.42;19.25;;;;;;;;;;2080543;28;20503;-74
2023/10/10 08:05:42;;;;;;;39.05;20.70;;;;;;;;;;2075542;28;20056;-75
2023/10/10 08:07:04;;;;;;;35.80;21.60;;;;;;;;;;2073773;28;20026;-74
2023/10/10 08:08:27;;;;;;;35.03;20.05;;;;;;;;;;2070821;28;20419;-74
2023/10/10 08:09:49;;;;;;;34.88;19.15;;;;;;;;;;2073770;28;20034;-75
2023/10/10 08:11:13;;;;;;;38.77;21.13;;;;;;;;;;2059100;28;20027;-75
2023/10/10 08:12:36;;;;;;;35.97;19.38;;;;;;;;;;2075913;28;20458;-73
2023/10/10 08:13:59;;;;;;;31.65;18.70;;;;;;;;;;2082914;28;20544;-74
2023/10/10 08:15:20;;;;;;;34.15;20.60;;;;;;;;;;2071093;28;20034;-73
2023/10/10 08:16:42;;;;;;;40.83;21.30;;;;;;;;;;2064407;28;20022;-74
2023/10/10 08:18:04;;;;;;;34.97;19.33;;;;;;;;;;2072348;28;20029;-73
2023/10/10 08:19:33;;;;;;;34.33;19.83;;;;;;;;;;2073479;28;20559;-74
2023/10/10 08:22:14;;;;;;;32.05;19.23;;;;;;;;;;2081388;28;20044;-74
2023/10/10 08:23:36;;;;;;;33.63;17.52;;;;;;;;;;2085165;28;20056;-76
2023/10/10 08:24:57;;;;;;;35.73;20.33;;;;;;;;;;2073438;28;20022;-75
2023/10/10 08:26:18;;;;;;;36.88;20.35;;;;;;;;;;2066030;28;20516;-74
2023/10/10 08:27:45;;;;;;;29.77;19.10;;;;;;;;;;2073352;28;20030;-74
2023/10/10 08:29:10;;;;;;;38.03;19.73;;;;;;;;;;2071922;28;20460;-74
2023/10/10 08:30:32;;;;;;;34.15;18.58;;;;;;;;;;2071299;28;20508;-77
2023/10/10 08:31:53;;;;;;;38.63;20.50;;;;;;;;;;2072787;28;20038;-75
2023/10/10 08:33:14;;;;;;;38.78;19.63;;;;;;;;;;2071474;28;20026;-75
2023/10/10 08:34:38;;;;;;;36.83;20.23;;;;;;;;;;2074421;28;20037;-75
2023/10/10 08:35:59;;;;;;;35.00;18.73;;;;;;;;;;2080265;28;20021;-75
2023/10/10 08:37:20;;;;;;;33.85;19.52;;;;;;;;;;2066789;28;20038;-75
2023/10/10 08:38:42;;;;;;;38.85;20.33;;;;;;;;;;2076555;28;20037;-75
2023/10/10 08:40:17;;;;;;;40.08;20.63;;;;;;;;;;2073179;28;20397;-75
2023/10/10 08:41:41;;;;;;;35.88;18.95;;;;;;;;;;2072531;28;20049;-75
2023/10/10 08:43:07;;;;;;;36.40;19.05;;;;;;;;;;2079500;28;20128;-75
2023/10/10 08:44:30;;;;;;;35.22;19.73;;;;;;;;;;2073017;28;20145;-75
2023/10/10 08:45:54;;;;;;;32.70;18.88;;;;;;;;;;2071703;28;20397;-75
2023/10/10 08:47:19;;;;;;;34.13;19.35;;;;;;;;;;2073893;28;20033;-75
2023/10/10 08:48:41;;;;;;;37.88;21.15;;;;;;;;;;2078581;28;20080;-75
2023/10/10 08:50:03;;;;;;;;;;;;;;;;;;2075340;28;20080;-75
2023/10/10 08:51:32;;;;;;;36.90;20.63;;;;;;;;;;2070390;28;19910;-75
2023/10/10 08:52:53;;;;;;;38.55;19.67;;;;;;;;;;2072455;28;20033;-75
2023/10/10 08:54:15;;;;;;;40.63;19.60;;;;;;;;;;2072867;28;20041;-75
2023/10/10 08:55:38;;;;;;;37.08;19.60;;;;;;;;;;2079191;28;20477;-75
2023/10/10 08:57:10;;;;;;;37.78;20.25;;;;;;;;;;2074066;28;20433;-75
2023/10/10 08:58:32;;;;;;;37.65;19.30;;;;;;;;;;2078802;28;20042;-74
2023/10/10 08:59:52;;;;;;;38.15;20.02;;;;;;;;;;2078762;28;20029;-75
2023/10/10 09:01:13;;;;;;;30.80;18.00;;;;;;;;;;2065518;28;20034;-74
2023/10/10 09:02:34;;;;;;;33.03;17.27;;;;;;;;;;2065151;28;20037;-74
2023/10/10 09:03:57;;;;;;;30.67;18.17;;;;;;;;;;2070037;28;20026;-74
2023/10/10 09:05:19;;;;;;;28.92;16.60;;;;;;;;;;2066340;28;20040;-74
2023/10/10 09:06:45;;;;;;;34.80;17.17;;;;;;;;;;2071615;28;20029;-74
2023/10/10 09:08:16;;;;;;;28.58;16.70;;;;;;;;;;2074186;28;20034;-74
2023/10/10 09:09:40;;;;;;;33.05;18.08;;;;;;;;;;2080896;28;20038;-74
2023/10/10 09:11:01;;;;;;;32.65;17.02;;;;;;;;;;2078627;28;20026;-74
2023/10/10 09:12:23;;;;;;;32.10;17.70;;;;;;;;;;2075738;28;20021;-74
2023/10/10 09:13:44;;;;;;;;;;;;;;;;;;2088705;28;20021;-75
2023/10/10 09:15:16;;;;;;;34.15;19.65;;;;;;;;;;2088299;28;19928;-74
2023/10/10 09:16:37;;;;;;;;;;;;;;;;;;2073322;28;20034;-74
2023/10/10 09:18:14;;;;;;;30.02;16.83;;;;;;;;;;2071653;28;19910;-74
2023/10/10 09:19:39;;;;;;;32.53;17.77;;;;;;;;;;2071596;28;20021;-74
2023/10/10 09:21:17;;;;;;;29.77;14.18;;;;;;;;;;2072716;28;20030;-74
2023/10/10 09:22:51;;;;;;;27.08;15.80;;;;;;;;;;2072247;28;20068;-74
2023/10/10 09:24:26;;;;;;;31.58;17.10;;;;;;;;;;2071508;28;20084;-74
2023/10/10 09:25:49;;;;;;;24.30;15.23;;;;;;;;;;2072658;28;20033;-73
2023/10/10 09:27:22;;;;;;;26.17;15.75;;;;;;;;;;2067489;28;20031;-74
2023/10/10 09:28:55;;;;;;;28.83;16.48;;;;;;;;;;2073789;28;20037;-75
2023/10/10 09:30:19;;;;;;;29.50;18.50;;;;;;;;;;2068359;28;20034;-73
2023/10/10 09:31:58;;;;;;;26.30;15.05;;;;;;;;;;2073350;28;20037;-74
2023/10/10 09:33:23;;;;;;;27.00;14.73;;;;;;;;;;2072765;28;20527;-74
2023/10/10 09:34:48;;;;;;;29.10;16.10;;;;;;;;;;2068503;28;20037;-74
2023/10/10 09:36:12;;;;;;;30.10;15.10;;;;;;;;;;2072538;28;20033;-74
2023/10/10 09:37:38;;;;;;;32.00;17.40;;;;;;;;;;2073236;28;20498;-74
2023/10/10 09:39:09;;;;;;;29.27;14.25;;;;;;;;;;2072186;28;20059;-74
2023/10/10 09:40:33;;;;;;;25.75;14.23;;;;;;;;;;2070539;28;20042;-73
2023/10/10 09:43:25;;;;;;;30.13;15.25;;;;;;;;;;2065383;28;20497;-74
2023/10/10 09:45:18;;;;;;;26.15;14.68;;;;;;;;;;2070367;28;20037;-73
2023/10/10 09:46:53;;;;;;;30.80;15.00;;;;;;;;;;2073151;28;20331;-72
2023/10/10 09:48:28;;;;;;;25.05;14.25;;;;;;;;;;2075147;28;20121;-72
2023/10/10 09:50:00;;;;;;;26.70;15.35;;;;;;;;;;2080946;28;20041;-73
2023/10/10 09:52:47;;;;;;;23.23;13.82;;;;;;;;;;2084263;28;20033;-72
2023/10/10 09:53:19;;;;;;;24.25;14.45;;;;;;;;;;2088736;28;20060;-73
2023/10/10 09:54:44;;;;;;;24.75;13.57;;;;;;;;;;2080506;28;20044;-73
2023/10/10 09:56:08;;;;;;;24.73;13.85;;;;;;;;;;2079831;28;20025;-73
2023/10/10 09:57:31;;;;;;;24.13;13.80;;;;;;;;;;2081637;28;20029;-74
2023/10/10 09:58:53;;;;;;;24.45;13.88;;;;;;;;;;2069553;28;20034;-73
2023/10/10 10:00:14;;;;;;;21.30;13.30;;;;;;;;;;2066997;28;20424;-73
2023/10/10 10:01:44;;;;;;;25.40;14.48;;;;;;;;;;2068917;28;20434;-73
2023/10/10 10:04:47;;;;;;;21.45;13.15;;;;;;;;;;2073458;28;20384;-73
2023/10/10 10:08:06;;;;;;;24.58;12.35;;;;;;;;;;2071293;28;20041;-72
2023/10/10 10:09:51;;;;;;;21.70;12.48;;;;;;;;;;2073028;28;20092;-73
2023/10/10 10:11:26;;;;;;;25.73;13.65;;;;;;;;;;2072299;28;20057;-73
2023/10/10 10:13:13;;;;;;;23.88;13.05;;;;;;;;;;2078343;28;20027;-72
2023/10/10 10:14:56;;;;;;;19.23;11.75;;;;;;;;;;2071689;28;20477;-73
2023/10/10 10:16:25;;;;;;;25.70;12.98;;;;;;;;;;2065341;28;20033;-72
2023/10/10 10:17:49;;;;;;;22.08;13.02;;;;;;;;;;2064519;28;20038;-73
2023/10/10 10:19:14;;;;;;;23.20;12.60;;;;;;;;;;2079096;28;20041;-73
2023/10/10 10:20:46;;;;;;;22.45;11.73;;;;;;;;;;2078959;28;20412;-73
2023/10/10 10:22:13;;;;;;;23.98;12.05;;;;;;;;;;2080198;28;20045;-73
2023/10/10 10:23:44;;;;;;;19.13;11.15;;;;;;;;;;2078988;28;20044;-73
2023/10/10 10:25:21;;;;;;;20.10;11.50;;;;;;;;;;2079797;28;20060;-72